createdAt,value
2022-12-12T00:01:24.128Z,15.60
2022-12-12T00:03:51.724Z,15.55
2022-12-12T00:06:19.138Z,15.90
2022-12-12T00:08:46.249Z,15.57
2022-12-12T00:11:14.073Z,16.10
2022-12-12T00:13:41.491Z,17.17
2022-12-12T00:16:09.367Z,16.77
2022-12-12T00:18:39.574Z,16.92
2022-12-12T00:21:12.034Z,16.45
2022-12-12T00:23:38.892Z,15.05
2022-12-12T00:26:09.320Z,15.77
2022-12-12T00:28:36.309Z,16.38
2022-12-12T00:31:03.328Z,16.77
2022-12-12T00:33:30.212Z,17.52
2022-12-12T00:35:57.502Z,17.38
2022-12-12T00:38:24.374Z,17.40
2022-12-12T00:40:56.933Z,13.70
2022-12-12T00:43:24.431Z,19.15
2022-12-12T00:45:51.461Z,16.13
2022-12-12T00:48:18.792Z,14.63
2022-12-12T00:50:46.769Z,18.70
2022-12-12T00:53:13.753Z,14.55
2022-12-12T00:55:40.685Z,19.00
2022-12-12T00:58:07.562Z,14.70
2022-12-12T01:00:35.619Z,16.08
2022-12-12T01:03:02.785Z,18.02
2022-12-12T01:05:29.844Z,18.65
2022-12-12T01:07:56.802Z,23.13
2022-12-12T01:10:23.690Z,19.77
2022-12-12T01:12:50.993Z,16.67
2022-12-12T01:15:17.853Z,16.85
2022-12-12T01:17:44.696Z,17.65
2022-12-12T01:20:18.484Z,17.98
2022-12-12T01:22:45.762Z,18.27
2022-12-12T01:25:14.005Z,19.10
2022-12-12T01:27:41.767Z,19.15
2022-12-12T01:30:11.768Z,19.45
2022-12-12T01:32:38.623Z,16.05
2022-12-12T01:35:08.419Z,17.83
2022-12-12T01:37:36.137Z,19.77
2022-12-12T01:40:05.567Z,19.23
2022-12-12T01:42:32.686Z,14.82
2022-12-12T01:44:59.610Z,16.52
2022-12-12T01:47:26.764Z,19.13
2022-12-12T01:50:01.693Z,15.23
2022-12-12T01:52:34.888Z,20.83
2022-12-12T01:55:05.958Z,19.95
2022-12-12T01:57:37.986Z,18.17
2022-12-12T02:00:08.788Z,16.30
2022-12-12T02:02:37.262Z,20.75
2022-12-12T02:05:28.738Z,21.83
2022-12-12T02:07:56.715Z,19.83
2022-12-12T02:10:23.708Z,21.10
2022-12-12T02:12:50.764Z,21.23
2022-12-12T02:15:17.837Z,21.25
2022-12-12T02:18:18.600Z,22.92
2022-12-12T02:21:11.338Z,23.67
2022-12-12T02:23:50.951Z,13.90
2022-12-12T02:26:36.215Z,20.52
2022-12-12T02:29:42.160Z,20.92
2022-12-12T02:32:14.560Z,19.88
2022-12-12T02:34:41.423Z,24.13
2022-12-12T02:37:21.849Z,19.10
2022-12-12T02:40:16.350Z,13.95
2022-12-12T02:43:13.492Z,17.00
2022-12-12T02:45:44.111Z,22.63
2022-12-12T02:48:17.220Z,14.80
2022-12-12T02:50:47.285Z,20.83
2022-12-12T02:53:18.581Z,21.05
2022-12-12T02:55:45.429Z,20.80
2022-12-12T02:58:13.460Z,18.80
2022-12-12T03:00:56.007Z,22.88
2022-12-12T03:04:03.817Z,20.85
2022-12-12T03:07:18.305Z,19.92
2022-12-12T03:10:07.009Z,19.75
2022-12-12T03:12:58.827Z,20.65
2022-12-12T03:15:36.894Z,22.73
2022-12-12T03:18:49.588Z,18.25
2022-12-12T03:21:31.062Z,18.45
2022-12-12T03:24:03.878Z,23.42
2022-12-12T03:26:52.043Z,19.88
2022-12-12T03:29:26.000Z,21.73
2022-12-12T03:31:58.376Z,18.95
2022-12-12T03:34:31.314Z,17.10
2022-12-12T03:37:09.327Z,13.07
2022-12-12T03:39:42.682Z,19.15
2022-12-12T03:42:16.567Z,21.58
2022-12-12T03:44:51.446Z,21.42
2022-12-12T03:47:35.452Z,23.45
2022-12-12T03:50:10.249Z,23.10
2022-12-12T03:52:46.940Z,15.18
2022-12-12T03:55:37.071Z,17.85
2022-12-12T03:58:13.944Z,19.27
2022-12-12T04:00:44.264Z,21.30
2022-12-12T04:03:18.294Z,23.88
2022-12-12T04:06:11.500Z,22.25
2022-12-12T04:08:39.453Z,19.48
2022-12-12T04:11:36.107Z,22.25
2022-12-12T04:14:42.013Z,19.27
2022-12-12T04:17:18.089Z,19.63
2022-12-12T04:20:15.971Z,16.00
2022-12-12T04:23:10.719Z,16.15
2022-12-12T04:26:16.776Z,24.98
2022-12-12T04:28:58.625Z,18.10
2022-12-12T04:31:28.668Z,18.92
2022-12-12T04:34:02.346Z,24.02
2022-12-12T04:36:31.988Z,19.52
2022-12-12T04:39:01.215Z,24.30
2022-12-12T04:41:31.164Z,22.40
2022-12-12T04:44:00.097Z,19.40
2022-12-12T04:46:31.274Z,25.20
2022-12-12T04:49:14.274Z,25.33
2022-12-12T04:51:45.793Z,18.92
2022-12-12T04:54:43.236Z,20.15
2022-12-12T04:57:14.752Z,21.23
2022-12-12T04:59:41.744Z,23.15
2022-12-12T05:02:26.190Z,25.05
2022-12-12T05:04:57.506Z,21.02
2022-12-12T05:07:39.978Z,20.88
2022-12-12T05:10:13.287Z,24.45
2022-12-12T05:15:10.007Z,22.90
2022-12-12T05:17:46.603Z,23.52
2022-12-12T05:20:15.054Z,21.48
2022-12-12T05:22:42.331Z,20.23
2022-12-12T05:25:10.364Z,20.38
2022-12-12T05:27:37.458Z,20.63
2022-12-12T05:30:05.087Z,20.35
2022-12-12T05:32:32.019Z,19.73
2022-12-12T05:34:59.652Z,24.10
2022-12-12T05:37:26.494Z,22.55
2022-12-12T05:39:53.437Z,21.17
2022-12-12T05:42:20.289Z,19.00
2022-12-12T05:44:47.333Z,23.08
2022-12-12T05:47:14.269Z,22.33
2022-12-12T05:49:41.106Z,22.10
2022-12-12T05:52:07.967Z,24.15
2022-12-12T05:54:35.304Z,22.40
2022-12-12T05:57:02.196Z,24.10
2022-12-12T05:59:31.016Z,24.48
2022-12-12T06:01:58.501Z,24.73
2022-12-12T06:04:25.397Z,23.90
2022-12-12T06:06:52.721Z,24.10
2022-12-12T06:09:19.776Z,20.75
2022-12-12T06:11:47.977Z,26.75
2022-12-12T06:14:14.833Z,25.85
2022-12-12T06:16:41.709Z,22.60
2022-12-12T06:19:08.585Z,21.02
2022-12-12T06:21:35.517Z,21.17
2022-12-12T06:24:02.473Z,23.67
2022-12-12T06:26:29.355Z,21.83
2022-12-12T06:28:56.884Z,20.85
2022-12-12T06:31:23.865Z,22.05
2022-12-12T06:33:50.803Z,23.50
2022-12-12T06:36:26.829Z,21.77
2022-12-12T06:38:55.577Z,22.08
2022-12-12T06:41:23.615Z,21.38
2022-12-12T06:43:51.021Z,20.27
2022-12-12T06:46:21.578Z,20.48
2022-12-12T06:48:49.058Z,22.77
2022-12-12T06:51:22.133Z,17.35
2022-12-12T06:53:49.662Z,22.77
2022-12-12T06:56:19.715Z,22.08
2022-12-12T06:58:47.386Z,21.50
2022-12-12T07:01:15.905Z,20.40
2022-12-12T07:03:42.856Z,22.15
2022-12-12T07:06:10.467Z,18.92
2022-12-12T07:08:38.292Z,19.60
2022-12-12T07:11:08.351Z,19.10
2022-12-12T07:13:35.665Z,19.48
2022-12-12T07:16:02.598Z,20.50
2022-12-12T07:18:29.634Z,19.48
2022-12-12T07:20:56.626Z,20.73
2022-12-12T07:23:23.851Z,24.58
2022-12-12T07:25:53.316Z,21.67
2022-12-12T07:28:20.258Z,19.23
2022-12-12T07:30:47.833Z,20.42
2022-12-12T07:33:16.745Z,18.35
2022-12-12T07:35:44.595Z,20.65
2022-12-12T07:38:12.247Z,22.83
2022-12-12T07:40:39.185Z,19.83
2022-12-12T07:43:06.147Z,22.42
2022-12-12T07:45:33.232Z,17.58
2022-12-12T07:48:00.119Z,20.63
2022-12-12T07:50:27.032Z,17.70
2022-12-12T07:52:53.918Z,20.33
2022-12-12T07:55:20.837Z,20.15
2022-12-12T07:57:47.724Z,17.67
2022-12-12T08:00:15.175Z,18.77
2022-12-12T08:02:42.082Z,19.15
2022-12-12T08:05:09.360Z,18.70
2022-12-12T08:07:36.388Z,15.65
2022-12-12T08:10:04.594Z,19.30
2022-12-12T08:12:32.087Z,19.75
2022-12-12T08:14:59.092Z,20.77
2022-12-12T08:17:26.162Z,20.98
2022-12-12T08:19:53.533Z,19.48
2022-12-12T08:22:20.790Z,19.05
2022-12-12T08:24:49.882Z,16.75
2022-12-12T08:27:16.877Z,18.95
2022-12-12T08:29:44.507Z,14.35
2022-12-12T08:32:11.414Z,17.80
2022-12-12T08:34:38.737Z,18.13
2022-12-12T08:37:05.585Z,16.65
2022-12-12T08:39:32.535Z,19.05
2022-12-12T08:42:00.299Z,17.95
2022-12-12T08:44:27.320Z,12.10
2022-12-12T08:46:55.049Z,19.55
2022-12-12T08:49:22.113Z,23.05
2022-12-12T08:51:50.582Z,18.48
2022-12-12T08:54:17.997Z,18.02
2022-12-12T08:56:44.964Z,16.90
2022-12-12T08:59:11.858Z,17.65
2022-12-12T09:01:39.032Z,17.33
2022-12-12T09:04:08.970Z,18.48
2022-12-12T09:06:35.910Z,17.55
2022-12-12T09:09:02.925Z,17.75
2022-12-12T09:11:29.902Z,18.52
2022-12-12T09:13:56.786Z,17.88
2022-12-12T09:16:26.433Z,18.83
2022-12-12T09:18:53.509Z,17.98
2022-12-12T09:21:20.928Z,16.85
2022-12-12T09:23:48.778Z,17.08
2022-12-12T09:26:15.728Z,16.42
2022-12-12T09:28:42.649Z,16.73
2022-12-12T09:31:11.590Z,18.17
2022-12-12T09:33:39.447Z,15.88
2022-12-12T09:36:08.105Z,18.02
2022-12-12T09:38:35.794Z,18.42
2022-12-12T09:41:11.882Z,16.25
2022-12-12T09:43:57.493Z,16.17
2022-12-12T09:46:30.172Z,16.15
2022-12-12T09:49:18.332Z,17.73
2022-12-12T09:51:49.151Z,17.88
2022-12-12T09:54:25.094Z,14.18
2022-12-12T09:57:07.663Z,17.40
2022-12-12T10:00:08.553Z,16.33
2022-12-12T10:02:43.871Z,16.00
2022-12-12T10:05:25.765Z,17.48
2022-12-12T10:07:59.537Z,17.85
2022-12-12T10:10:36.584Z,17.02
2022-12-12T10:13:06.357Z,18.23
2022-12-12T10:15:43.311Z,18.15
2022-12-12T10:18:30.818Z,17.08
2022-12-12T10:21:01.492Z,29.58
2022-12-12T10:23:36.333Z,17.00
2022-12-12T10:26:08.510Z,16.15
2022-12-12T10:28:35.753Z,17.75
2022-12-12T10:31:02.725Z,16.40
2022-12-12T10:33:58.151Z,17.38
2022-12-12T10:36:34.186Z,19.15
2022-12-12T10:39:17.591Z,19.30
2022-12-12T10:41:53.982Z,17.38
2022-12-12T10:44:23.678Z,18.38
2022-12-12T10:46:56.889Z,16.40
2022-12-12T10:49:24.573Z,20.50
2022-12-12T10:51:52.682Z,23.65
2022-12-12T10:54:26.492Z,21.70
2022-12-12T10:57:07.267Z,20.38
2022-12-12T10:59:47.618Z,19.60
2022-12-12T11:02:30.050Z,18.02
2022-12-12T11:05:30.046Z,18.27
2022-12-12T11:08:06.176Z,19.60
2022-12-12T11:10:37.796Z,19.05
2022-12-12T11:13:10.507Z,19.05
2022-12-12T11:15:50.834Z,18.38
2022-12-12T11:18:20.772Z,18.00
2022-12-12T11:21:10.733Z,20.25
2022-12-12T11:23:52.722Z,16.95
2022-12-12T11:26:21.723Z,29.50
2022-12-12T11:29:02.084Z,18.63
2022-12-12T11:31:35.455Z,18.35
2022-12-12T11:34:05.886Z,21.02
2022-12-12T11:36:38.839Z,20.10
2022-12-12T11:42:22.118Z,17.40
2022-12-12T11:45:09.607Z,17.70
2022-12-12T11:47:45.480Z,17.90
2022-12-12T11:50:24.126Z,16.88
2022-12-12T11:52:54.374Z,19.38
2022-12-12T11:55:45.203Z,21.58
2022-12-12T11:58:15.148Z,19.83
2022-12-12T12:01:02.416Z,20.20
2022-12-12T12:04:22.126Z,19.85
2022-12-12T12:07:12.764Z,20.33
2022-12-12T12:10:02.328Z,21.85
2022-12-12T12:13:07.980Z,19.50
2022-12-12T12:15:45.103Z,20.85
2022-12-12T12:18:23.689Z,20.45
2022-12-12T12:21:14.260Z,21.50
2022-12-12T12:24:07.841Z,21.58
2022-12-12T12:26:46.551Z,20.17
2022-12-12T12:29:31.787Z,21.80
2022-12-12T12:32:29.901Z,21.67
2022-12-12T12:35:09.909Z,18.50
2022-12-12T12:37:39.932Z,20.98
2022-12-12T12:40:42.808Z,19.80
2022-12-12T12:43:33.874Z,20.23
2022-12-12T12:46:24.870Z,22.17
2022-12-12T12:48:56.325Z,21.02
2022-12-12T12:51:29.606Z,20.70
2022-12-12T12:54:13.612Z,18.00
2022-12-12T12:56:56.394Z,20.77
2022-12-12T12:59:28.416Z,21.83
2022-12-12T13:01:58.180Z,18.98
2022-12-12T13:04:51.187Z,21.15
2022-12-12T13:07:41.501Z,19.40
2022-12-12T13:10:29.757Z,19.27
2022-12-12T13:13:30.710Z,21.52
2022-12-12T13:15:57.631Z,62.30
2022-12-12T13:18:26.140Z,32.15
2022-12-12T13:21:32.517Z,20.98
2022-12-12T13:24:06.469Z,21.48
2022-12-12T13:26:57.573Z,22.60
2022-12-12T13:29:42.794Z,34.80
2022-12-12T13:32:47.318Z,20.20
2022-12-12T13:35:54.597Z,20.88
2022-12-12T13:38:29.908Z,18.05
2022-12-12T13:41:06.411Z,19.27
2022-12-12T13:43:43.195Z,20.70
2022-12-12T13:46:21.772Z,19.52
2022-12-12T13:49:03.595Z,21.40
2022-12-12T13:51:31.366Z,21.80
2022-12-12T13:54:14.964Z,20.35
2022-12-12T13:56:53.875Z,20.88
2022-12-12T13:59:23.526Z,22.20
2022-12-12T14:02:17.487Z,21.45
2022-12-12T14:04:44.755Z,20.27
2022-12-12T14:07:19.009Z,18.50
2022-12-12T14:09:49.805Z,21.85
2022-12-12T14:12:32.035Z,22.27
2022-12-12T14:15:21.313Z,22.25
2022-12-12T14:17:56.348Z,25.10
2022-12-12T14:20:39.641Z,20.85
2022-12-12T14:25:40.088Z,22.17
2022-12-12T14:28:28.027Z,22.38
2022-12-12T14:30:57.308Z,23.73
2022-12-12T14:33:42.223Z,24.27
2022-12-12T14:36:33.443Z,22.80
2022-12-12T14:39:27.447Z,23.10
2022-12-12T14:41:56.377Z,23.65
2022-12-12T14:44:36.076Z,22.58
2022-12-12T14:47:09.269Z,22.58
2022-12-12T14:49:36.500Z,23.63
2022-12-12T14:52:03.798Z,24.42
2022-12-12T14:54:31.418Z,23.63
2022-12-12T14:57:01.972Z,21.50
2022-12-12T14:59:31.502Z,22.00
2022-12-12T15:02:16.358Z,25.02
2022-12-12T15:04:47.106Z,23.92
2022-12-12T15:07:32.076Z,24.45
2022-12-12T15:09:59.514Z,22.08
2022-12-12T15:12:34.814Z,24.33
2022-12-12T15:15:02.242Z,24.67
2022-12-12T15:17:44.057Z,24.92
2022-12-12T15:20:37.823Z,26.75
2022-12-12T15:23:07.138Z,25.85
2022-12-12T15:25:48.938Z,22.60
2022-12-12T15:28:19.100Z,22.20
2022-12-12T15:30:49.449Z,22.40
2022-12-12T15:33:17.662Z,24.90
2022-12-12T15:36:01.176Z,23.73
2022-12-12T15:38:29.754Z,26.63
2022-12-12T15:40:59.851Z,25.35
2022-12-12T15:43:28.986Z,24.30
2022-12-12T15:45:59.275Z,24.38
2022-12-12T15:48:26.924Z,23.45
2022-12-12T15:50:57.315Z,25.92
2022-12-12T15:53:25.553Z,29.05
2022-12-12T15:56:00.001Z,26.83
2022-12-12T15:58:39.506Z,27.13
2022-12-12T16:01:20.716Z,25.50
2022-12-12T16:04:10.536Z,26.73
2022-12-12T16:06:40.624Z,12.43
2022-12-12T16:09:07.533Z,26.02
2022-12-12T16:11:39.813Z,27.13
2022-12-12T16:14:35.507Z,27.33
2022-12-12T16:17:26.058Z,28.80
2022-12-12T16:20:04.897Z,27.20
2022-12-12T16:22:34.530Z,27.67
2022-12-12T16:25:24.646Z,28.30
2022-12-12T16:28:01.204Z,27.13
2022-12-12T16:30:28.922Z,23.23
2022-12-12T16:32:55.876Z,24.80
2022-12-12T16:35:24.238Z,26.00
2022-12-12T16:37:53.957Z,27.02
2022-12-12T16:40:21.869Z,27.23
2022-12-12T16:43:04.803Z,28.67
2022-12-12T16:45:34.855Z,27.17
2022-12-12T16:48:01.915Z,29.25
2022-12-12T16:50:28.956Z,26.33
2022-12-12T16:52:55.890Z,26.42
2022-12-12T16:55:23.810Z,26.23
2022-12-12T16:57:50.854Z,29.02
2022-12-12T17:00:20.511Z,31.20
2022-12-12T17:02:47.469Z,29.17
2022-12-12T17:05:22.444Z,29.42
2022-12-12T17:07:51.453Z,31.17
2022-12-12T17:10:19.502Z,26.73
2022-12-12T17:12:47.188Z,28.83
2022-12-12T17:15:28.902Z,27.13
2022-12-12T17:17:56.883Z,29.58
2022-12-12T17:20:25.977Z,30.50
2022-12-12T17:22:53.077Z,31.08
2022-12-12T17:25:21.560Z,30.08
2022-12-12T17:27:49.444Z,29.45
2022-12-12T17:30:16.720Z,31.10
2022-12-12T17:33:30.686Z,30.08
2022-12-12T17:35:31.703Z,29.52
2022-12-12T17:37:59.465Z,29.48
2022-12-12T17:40:30.370Z,27.48
2022-12-12T17:42:57.943Z,26.50
2022-12-12T17:45:24.967Z,26.35
2022-12-12T17:47:51.980Z,25.88
2022-12-12T17:50:19.386Z,25.67
2022-12-12T17:52:46.402Z,25.27
2022-12-12T17:55:54.778Z,25.33
2022-12-12T17:58:00.205Z,25.27
2022-12-12T18:00:27.248Z,26.13
2022-12-12T18:02:54.108Z,22.63
2022-12-12T18:05:21.052Z,25.33
2022-12-12T18:07:48.072Z,24.30
2022-12-12T18:10:15.206Z,24.33
2022-12-12T18:12:48.262Z,23.52
2022-12-12T18:15:18.407Z,25.95
2022-12-12T18:17:45.453Z,23.17
2022-12-12T18:20:12.890Z,25.02
2022-12-12T18:22:39.971Z,23.75
2022-12-12T18:25:07.441Z,23.15
2022-12-12T18:27:34.434Z,21.20
2022-12-12T18:30:05.442Z,20.10
2022-12-12T18:32:32.476Z,20.85
2022-12-12T18:34:59.808Z,19.33
2022-12-12T18:37:26.762Z,21.35
2022-12-12T18:39:53.676Z,22.77
2022-12-12T18:42:21.825Z,20.15
2022-12-12T18:44:48.859Z,21.88
2022-12-12T18:47:15.786Z,23.90
2022-12-12T18:49:42.676Z,21.38
2022-12-12T18:52:09.706Z,22.52
2022-12-12T18:54:36.838Z,21.42
2022-12-12T18:57:03.813Z,22.13
2022-12-12T18:59:30.831Z,24.85
2022-12-12T19:01:58.108Z,22.67
2022-12-12T19:04:25.235Z,23.98
2022-12-12T19:06:52.731Z,22.23
2022-12-12T19:09:20.422Z,23.80
2022-12-12T19:11:48.004Z,23.17
2022-12-12T19:14:16.998Z,22.83
2022-12-12T19:16:45.234Z,22.85
2022-12-12T19:19:12.404Z,22.52
2022-12-12T19:21:40.740Z,22.83
2022-12-12T19:24:12.626Z,22.23
2022-12-12T19:26:43.849Z,22.37
2022-12-12T19:29:14.303Z,21.50
2022-12-12T19:31:41.295Z,21.88
2022-12-12T19:34:10.298Z,23.65
2022-12-12T19:36:37.318Z,21.98
2022-12-12T19:39:06.725Z,22.55
2022-12-12T19:41:34.347Z,22.20
2022-12-12T19:44:02.112Z,23.05
2022-12-12T19:46:31.166Z,24.92
2022-12-12T19:49:00.980Z,21.23
2022-12-12T19:51:29.536Z,23.08
2022-12-12T19:53:58.506Z,20.55
2022-12-12T19:56:31.015Z,22.58
2022-12-12T19:58:58.981Z,20.38
2022-12-12T20:01:28.769Z,22.10
2022-12-12T20:04:03.319Z,22.95
2022-12-12T20:06:30.210Z,22.83
2022-12-12T20:09:00.137Z,20.60
2022-12-12T20:11:27.642Z,22.48
2022-12-12T20:13:57.049Z,21.45
2022-12-12T20:16:26.216Z,21.75
2022-12-12T20:18:53.607Z,21.23
2022-12-12T20:21:59.274Z,22.30
2022-12-12T20:24:12.874Z,20.52
2022-12-12T20:26:40.681Z,21.42
2022-12-12T20:29:08.884Z,21.65
2022-12-12T20:31:38.412Z,22.15
2022-12-12T20:34:05.913Z,22.70
2022-12-12T20:36:35.006Z,21.55
2022-12-12T20:39:06.457Z,20.35
2022-12-12T20:41:37.712Z,21.13
2022-12-12T20:44:05.925Z,20.20
2022-12-12T20:46:38.522Z,21.08
2022-12-12T20:49:09.456Z,19.70
2022-12-12T20:54:24.622Z,19.02
2022-12-12T20:56:53.503Z,20.20
2022-12-12T20:59:20.421Z,19.77
2022-12-12T21:01:47.765Z,18.27
2022-12-12T21:04:15.329Z,18.13
2022-12-12T21:06:44.962Z,19.25
2022-12-12T21:09:16.310Z,19.30
2022-12-12T21:11:46.499Z,18.75
2022-12-12T21:14:13.993Z,17.63
2022-12-12T21:16:41.112Z,16.98
2022-12-12T21:19:11.593Z,16.83
2022-12-12T21:21:40.604Z,18.52
2022-12-12T21:24:08.199Z,18.35
2022-12-12T21:26:35.248Z,17.45
2022-12-12T21:29:02.749Z,18.50
2022-12-12T21:31:32.718Z,17.73
2022-12-12T21:34:00.525Z,19.02
2022-12-12T21:36:28.969Z,17.92
2022-12-12T21:38:57.594Z,17.38
2022-12-12T21:41:25.759Z,17.38
2022-12-12T21:43:52.932Z,17.95
2022-12-12T21:46:23.148Z,16.65
2022-12-12T21:49:11.277Z,17.13
2022-12-12T21:51:39.521Z,19.52
2022-12-12T21:54:09.351Z,17.60
2022-12-12T21:56:36.425Z,18.63
2022-12-12T21:59:04.541Z,16.75
2022-12-12T22:01:32.798Z,17.23
2022-12-12T22:04:00.214Z,15.75
2022-12-12T22:06:32.602Z,15.30
2022-12-12T22:09:01.376Z,14.80
2022-12-12T22:11:41.144Z,17.20
2022-12-12T22:14:17.595Z,16.23
2022-12-12T22:16:44.830Z,16.95
2022-12-12T22:19:14.110Z,17.15
2022-12-12T22:21:41.385Z,15.57
2022-12-12T22:24:08.975Z,15.68
2022-12-12T22:26:38.931Z,15.80
2022-12-12T22:29:09.934Z,15.75
2022-12-12T22:31:38.795Z,13.60
2022-12-12T22:34:21.244Z,16.23
2022-12-12T22:36:48.542Z,15.80
2022-12-12T22:39:18.334Z,15.20
2022-12-12T22:41:45.973Z,14.68
2022-12-12T22:44:15.905Z,14.77
2022-12-12T22:46:45.020Z,15.52
2022-12-12T22:49:14.987Z,15.23
2022-12-12T22:51:43.123Z,14.77
2022-12-12T22:54:10.371Z,13.40
2022-12-12T22:56:39.003Z,14.02
2022-12-12T22:59:06.871Z,14.88
2022-12-12T23:01:34.205Z,15.25
2022-12-12T23:04:01.307Z,15.13
2022-12-12T23:06:30.799Z,15.15
2022-12-12T23:08:59.745Z,14.68
2022-12-12T23:11:29.239Z,14.43
2022-12-12T23:14:03.213Z,12.98
2022-12-12T23:16:35.592Z,12.20
2022-12-12T23:19:04.460Z,12.63
2022-12-12T23:21:31.356Z,11.43
2022-12-12T23:23:58.226Z,12.18
2022-12-12T23:26:29.993Z,13.18
2022-12-12T23:29:00.365Z,11.80
2022-12-12T23:31:31.088Z,12.93
2022-12-12T23:34:00.693Z,12.85
2022-12-12T23:36:28.414Z,11.65
2022-12-12T23:38:57.104Z,12.02
2022-12-12T23:41:24.545Z,13.20
2022-12-12T23:43:51.814Z,12.63
2022-12-12T23:46:34.314Z,12.63
2022-12-12T23:49:06.789Z,11.82
2022-12-12T23:51:39.860Z,12.70
2022-12-12T23:56:35.580Z,12.98
2022-12-12T23:59:02.873Z,11.85
